sensor_id;sensor_type;location;lat;lon;timestamp;pressure;altitude;pressure_sealevel;temperature;humidity
78888;BME280;68276;49.326;8.690;2023-08-01T00:02:15;99242.31;;;18.03;100.00
78888;BME280;68276;49.326;8.690;2023-08-01T00:04:41;99228.19;;;18.06;100.00
78888;BME280;68276;49.326;8.690;2023-08-01T00:07:06;99227.03;;;17.97;100.00
78888;BME280;68276;49.326;8.690;2023-08-01T00:09:31;99218.53;;;17.89;100.00
78888;BME280;68276;49.326;8.690;2023-08-01T00:11:57;99200.56;;;17.83;100.00
78888;BME280;68276;49.326;8.690;2023-08-01T00:14:22;99194.03;;;17.84;100.00
78888;BME280;68276;49.326;8.690;2023-08-01T00:16:50;99180.47;;;17.84;100.00
78888;BME280;68276;49.326;8.690;2023-08-01T00:19:15;99172.28;;;17.79;100.00
78888;BME280;68276;49.326;8.690;2023-08-01T00:21:41;99158.72;;;17.84;100.00
78888;BME280;68276;49.326;8.690;2023-08-01T00:24:06;99162.53;;;17.83;100.00
78888;BME280;68276;49.326;8.690;2023-08-01T00:26:33;99149.50;;;17.85;100.00
78888;BME280;68276;49.326;8.690;2023-08-01T00:28:58;99138.63;;;17.80;100.00
78888;BME280;68276;49.326;8.690;2023-08-01T00:31:24;99125.66;;;17.92;100.00
78888;BME280;68276;49.326;8.690;2023-08-01T00:33:49;99127.47;;;17.81;100.00
78888;BME280;68276;49.326;8.690;2023-08-01T00:36:15;99119.56;;;17.75;100.00
78888;BME280;68276;49.326;8.690;2023-08-01T00:38:40;99108.16;;;17.78;100.00
78888;BME280;68276;49.326;8.690;2023-08-01T00:41:08;99093.78;;;17.82;100.00
78888;BME280;68276;49.326;8.690;2023-08-01T00:43:33;99100.06;;;17.83;100.00
78888;BME280;68276;49.326;8.690;2023-08-01T00:46:00;99095.13;;;17.75;100.00
78888;BME280;68276;49.326;8.690;2023-08-01T00:48:28;99088.88;;;17.79;100.00
78888;BME280;68276;49.326;8.690;2023-08-01T00:50:53;99079.94;;;17.84;100.00
78888;BME280;68276;49.326;8.690;2023-08-01T00:53:21;99077.50;;;17.82;100.00
78888;BME280;68276;49.326;8.690;2023-08-01T00:55:46;99090.00;;;17.83;100.00
78888;BME280;68276;49.326;8.690;2023-08-01T00:58:12;99093.56;;;17.89;100.00
78888;BME280;68276;49.326;8.690;2023-08-01T01:00:37;99082.66;;;17.84;100.00
78888;BME280;68276;49.326;8.690;2023-08-01T01:03:04;99096.28;;;17.94;100.00
78888;BME280;68276;49.326;8.690;2023-08-01T01:05:33;99086.84;;;18.01;100.00
78888;BME280;68276;49.326;8.690;2023-08-01T01:08:00;99073.78;;;17.98;100.00
78888;BME280;68276;49.326;8.690;2023-08-01T01:10:27;99065.94;;;18.02;100.00
78888;BME280;68276;49.326;8.690;2023-08-01T01:12:52;99068.91;;;18.00;100.00
78888;BME280;68276;49.326;8.690;2023-08-01T01:15:18;99064.81;;;17.98;100.00
78888;BME280;68276;49.326;8.690;2023-08-01T01:17:43;99071.09;;;18.03;100.00
78888;BME280;68276;49.326;8.690;2023-08-01T01:20:09;99047.94;;;17.96;100.00
78888;BME280;68276;49.326;8.690;2023-08-01T01:22:36;99054.22;;;18.01;100.00
78888;BME280;68276;49.326;8.690;2023-08-01T01:25:02;99037.66;;;18.03;100.00
78888;BME280;68276;49.326;8.690;2023-08-01T01:27:29;99044.97;;;17.97;100.00
78888;BME280;68276;49.326;8.690;2023-08-01T01:29:55;99046.59;;;17.93;100.00
78888;BME280;68276;49.326;8.690;2023-08-01T01:32:21;99048.44;;;17.88;100.00
78888;BME280;68276;49.326;8.690;2023-08-01T01:34:47;99046.53;;;17.83;100.00
78888;BME280;68276;49.326;8.690;2023-08-01T01:37:12;99035.13;;;17.81;100.00
78888;BME280;68276;49.326;8.690;2023-08-01T01:39:38;99019.38;;;17.83;100.00
78888;BME280;68276;49.326;8.690;2023-08-01T01:42:03;99028.59;;;17.82;100.00
78888;BME280;68276;49.326;8.690;2023-08-01T01:44:29;99035.09;;;17.76;100.00
78888;BME280;68276;49.326;8.690;2023-08-01T01:46:54;99026.38;;;17.74;100.00
78888;BME280;68276;49.326;8.690;2023-08-01T01:49:19;99024.44;;;17.70;100.00
78888;BME280;68276;49.326;8.690;2023-08-01T01:51:45;99038.56;;;17.72;100.00
78888;BME280;68276;49.326;8.690;2023-08-01T01:54:11;99033.69;;;17.74;100.00
78888;BME280;68276;49.326;8.690;2023-08-01T01:56:37;99040.78;;;17.75;100.00
78888;BME280;68276;49.326;8.690;2023-08-01T01:59:02;99038.56;;;17.72;100.00
78888;BME280;68276;49.326;8.690;2023-08-01T02:01:28;99043.44;;;17.70;100.00
78888;BME280;68276;49.326;8.690;2023-08-01T02:03:53;99037.47;;;17.68;100.00
78888;BME280;68276;49.326;8.690;2023-08-01T02:06:18;99032.84;;;17.68;100.00
78888;BME280;68276;49.326;8.690;2023-08-01T02:08:44;99025.28;;;17.75;100.00
78888;BME280;68276;49.326;8.690;2023-08-01T02:11:10;99023.63;;;17.69;100.00
78888;BME280;68276;49.326;8.690;2023-08-01T02:13:35;99023.31;;;17.61;100.00
78888;BME280;68276;49.326;8.690;2023-08-01T02:16:00;99017.34;;;17.64;100.00
78888;BME280;68276;49.326;8.690;2023-08-01T02:18:26;99007.81;;;17.61;100.00
78888;BME280;68276;49.326;8.690;2023-08-01T02:20:51;99009.75;;;17.66;100.00
78888;BME280;68276;49.326;8.690;2023-08-01T02:23:17;99003.00;;;17.73;100.00
78888;BME280;68276;49.326;8.690;2023-08-01T02:25:42;98997.81;;;17.67;100.00
78888;BME280;68276;49.326;8.690;2023-08-01T02:28:08;99004.59;;;17.64;100.00
78888;BME280;68276;49.326;8.690;2023-08-01T02:30:37;98997.25;;;17.65;100.00
78888;BME280;68276;49.326;8.690;2023-08-01T02:33:02;98990.16;;;17.59;100.00
78888;BME280;68276;49.326;8.690;2023-08-01T02:35:28;98989.34;;;17.58;100.00
78888;BME280;68276;49.326;8.690;2023-08-01T02:37:54;98994.78;;;17.58;100.00
78888;BME280;68276;49.326;8.690;2023-08-01T02:40:19;98993.94;;;17.58;100.00
78888;BME280;68276;49.326;8.690;2023-08-01T02:42:45;98992.31;;;17.57;100.00
78888;BME280;68276;49.326;8.690;2023-08-01T02:45:10;98989.91;;;17.60;100.00
78888;BME280;68276;49.326;8.690;2023-08-01T02:47:36;98996.44;;;17.64;100.00
78888;BME280;68276;49.326;8.690;2023-08-01T02:50:01;98983.09;;;17.63;100.00
78888;BME280;68276;49.326;8.690;2023-08-01T02:52:27;98989.66;;;17.67;100.00
78888;BME280;68276;49.326;8.690;2023-08-01T02:54:53;98977.97;;;17.66;100.00
78888;BME280;68276;49.326;8.690;2023-08-01T02:57:18;98974.44;;;17.66;100.00
78888;BME280;68276;49.326;8.690;2023-08-01T02:59:44;98980.16;;;17.64;100.00
78888;BME280;68276;49.326;8.690;2023-08-01T03:02:09;98979.31;;;17.64;100.00
78888;BME280;68276;49.326;8.690;2023-08-01T03:04:35;98977.44;;;17.64;100.00
78888;BME280;68276;49.326;8.690;2023-08-01T03:07:00;98972.00;;;17.64;100.00
78888;BME280;68276;49.326;8.690;2023-08-01T03:09:26;98956.00;;;17.68;100.00
78888;BME280;68276;49.326;8.690;2023-08-01T03:11:51;98950.03;;;17.71;100.00
78888;BME280;68276;49.326;8.690;2023-08-01T03:14:17;98963.06;;;17.69;100.00
78888;BME280;68276;49.326;8.690;2023-08-01T03:16:42;98974.50;;;17.76;100.00
78888;BME280;68276;49.326;8.690;2023-08-01T03:19:07;98978.53;;;17.73;100.00
78888;BME280;68276;49.326;8.690;2023-08-01T03:21:34;98973.63;;;17.65;100.00
78888;BME280;68276;49.326;8.690;2023-08-01T03:24:03;98968.47;;;17.69;100.00
78888;BME280;68276;49.326;8.690;2023-08-01T03:26:28;98978.81;;;17.72;100.00
78888;BME280;68276;49.326;8.690;2023-08-01T03:28:55;98994.34;;;17.76;100.00
78888;BME280;68276;49.326;8.690;2023-08-01T03:31:21;98994.63;;;17.80;100.00
78888;BME280;68276;49.326;8.690;2023-08-01T03:33:46;98997.88;;;17.82;100.00
78888;BME280;68276;49.326;8.690;2023-08-01T03:36:12;98994.09;;;17.83;100.00
78888;BME280;68276;49.326;8.690;2023-08-01T03:38:37;98993.56;;;17.86;100.00
78888;BME280;68276;49.326;8.690;2023-08-01T03:41:03;98993.53;;;17.81;100.00
78888;BME280;68276;49.326;8.690;2023-08-01T03:43:29;98997.06;;;17.76;100.00
78888;BME280;68276;49.326;8.690;2023-08-01T03:45:54;98984.25;;;17.72;100.00
78888;BME280;68276;49.326;8.690;2023-08-01T03:48:20;98983.75;;;17.75;100.00
78888;BME280;68276;49.326;8.690;2023-08-01T03:50:45;98978.81;;;17.72;100.00
78888;BME280;68276;49.326;8.690;2023-08-01T03:53:10;98958.75;;;17.73;100.00
78888;BME280;68276;49.326;8.690;2023-08-01T03:55:36;98949.25;;;17.80;100.00
78888;BME280;68276;49.326;8.690;2023-08-01T03:58:02;98957.38;;;17.75;100.00
78888;BME280;68276;49.326;8.690;2023-08-01T04:00:27;98945.44;;;17.76;100.00
78888;BME280;68276;49.326;8.690;2023-08-01T04:02:57;98941.34;;;17.74;100.00
78888;BME280;68276;49.326;8.690;2023-08-01T04:05:22;98932.38;;;17.73;100.00
78888;BME280;68276;49.326;8.690;2023-08-01T04:07:49;98934.56;;;17.71;100.00
78888;BME280;68276;49.326;8.690;2023-08-01T04:10:15;98939.16;;;17.71;100.00
78888;BME280;68276;49.326;8.690;2023-08-01T04:12:40;98940.81;;;17.77;100.00
78888;BME280;68276;49.326;8.690;2023-08-01T04:15:08;98937.00;;;17.73;100.00
78888;BME280;68276;49.326;8.690;2023-08-01T04:17:33;98924.19;;;17.68;100.00
78888;BME280;68276;49.326;8.690;2023-08-01T04:19:58;98912.56;;;17.73;100.00
78888;BME280;68276;49.326;8.690;2023-08-01T04:22:24;98938.59;;;17.69;100.00
78888;BME280;68276;49.326;8.690;2023-08-01T04:24:49;98934.56;;;17.71;100.00
78888;BME280;68276;49.326;8.690;2023-08-01T04:27:15;98940.78;;;17.72;100.00
78888;BME280;68276;49.326;8.690;2023-08-01T04:29:41;98948.38;;;17.70;100.00
78888;BME280;68276;49.326;8.690;2023-08-01T04:32:06;98948.91;;;17.62;100.00
78888;BME280;68276;49.326;8.690;2023-08-01T04:34:32;98938.84;;;17.57;100.00
78888;BME280;68276;49.326;8.690;2023-08-01T04:36:57;98937.47;;;17.60;100.00
78888;BME280;68276;49.326;8.690;2023-08-01T04:39:23;98917.41;;;17.66;100.00
78888;BME280;68276;49.326;8.690;2023-08-01T04:41:48;98913.88;;;17.65;100.00
78888;BME280;68276;49.326;8.690;2023-08-01T04:44:15;98941.88;;;17.66;100.00
78888;BME280;68276;49.326;8.690;2023-08-01T04:46:40;98928.84;;;17.68;100.00
78888;BME280;68276;49.326;8.690;2023-08-01T04:49:05;98925.56;;;17.66;100.00
78888;BME280;68276;49.326;8.690;2023-08-01T04:51:31;98914.16;;;17.69;100.00
78888;BME280;68276;49.326;8.690;2023-08-01T04:53:56;98921.47;;;17.68;100.00
78888;BME280;68276;49.326;8.690;2023-08-01T04:56:22;98920.13;;;17.66;100.00
78888;BME280;68276;49.326;8.690;2023-08-01T04:58:47;98923.91;;;17.65;100.00
78888;BME280;68276;49.326;8.690;2023-08-01T05:01:12;98936.44;;;17.66;100.00
78888;BME280;68276;49.326;8.690;2023-08-01T05:03:38;98933.16;;;17.64;100.00
78888;BME280;68276;49.326;8.690;2023-08-01T05:06:03;98937.19;;;17.61;100.00
78888;BME280;68276;49.326;8.690;2023-08-01T05:08:28;98935.34;;;17.67;100.00
78888;BME280;68276;49.326;8.690;2023-08-01T05:10:54;98912.84;;;17.71;100.00
78888;BME280;68276;49.326;8.690;2023-08-01T05:13:19;98925.56;;;17.66;100.00
78888;BME280;68276;49.326;8.690;2023-08-01T05:15:46;98932.06;;;17.65;100.00
78888;BME280;68276;49.326;8.690;2023-08-01T05:18:13;98940.75;;;17.62;100.00
78888;BME280;68276;49.326;8.690;2023-08-01T05:20:38;98944.53;;;17.56;100.00
78888;BME280;68276;49.326;8.690;2023-08-01T05:23:04;98944.00;;;17.59;100.00
78888;BME280;68276;49.326;8.690;2023-08-01T05:25:29;98945.31;;;17.51;100.00
78888;BME280;68276;49.326;8.690;2023-08-01T05:27:54;98939.09;;;17.56;100.00
78888;BME280;68276;49.326;8.690;2023-08-01T05:30:20;98940.16;;;17.55;100.00
78888;BME280;68276;49.326;8.690;2023-08-01T05:32:45;98930.91;;;17.51;100.00
78888;BME280;68276;49.326;8.690;2023-08-01T05:35:12;98922.22;;;17.49;100.00
78888;BME280;68276;49.326;8.690;2023-08-01T05:37:37;98928.41;;;17.44;100.00
78888;BME280;68276;49.326;8.690;2023-08-01T05:40:04;98922.47;;;17.47;100.00
78888;BME280;68276;49.326;8.690;2023-08-01T05:42:29;98933.63;;;17.51;100.00
78888;BME280;68276;49.326;8.690;2023-08-01T05:44:55;98947.41;;;17.44;100.00
78888;BME280;68276;49.326;8.690;2023-08-01T05:47:20;98940.00;;;17.30;100.00
78888;BME280;68276;49.326;8.690;2023-08-01T05:49:48;98934.81;;;17.28;100.00
78888;BME280;68276;49.326;8.690;2023-08-01T05:52:13;98931.28;;;17.23;100.00
78888;BME280;68276;49.326;8.690;2023-08-01T05:54:39;98932.06;;;17.23;100.00
78888;BME280;68276;49.326;8.690;2023-08-01T05:57:04;98938.78;;;17.10;100.00
78888;BME280;68276;49.326;8.690;2023-08-01T05:59:30;98930.31;;;17.02;100.00
78888;BME280;68276;49.326;8.690;2023-08-01T06:01:55;98943.03;;;16.96;100.00
78888;BME280;68276;49.326;8.690;2023-08-01T06:04:21;98940.78;;;16.88;100.00
78888;BME280;68276;49.326;8.690;2023-08-01T06:06:46;98949.38;;;16.75;100.00
78888;BME280;68276;49.326;8.690;2023-08-01T06:09:11;98961.78;;;16.71;100.00
78888;BME280;68276;49.326;8.690;2023-08-01T06:11:37;98949.03;;;16.67;100.00
78888;BME280;68276;49.326;8.690;2023-08-01T06:14:03;98942.22;;;16.64;100.00
78888;BME280;68276;49.326;8.690;2023-08-01T06:16:28;98945.91;;;16.53;100.00
78888;BME280;68276;49.326;8.690;2023-08-01T06:18:54;98952.97;;;16.54;100.00
78888;BME280;68276;49.326;8.690;2023-08-01T06:21:19;98950.78;;;16.51;100.00
78888;BME280;68276;49.326;8.690;2023-08-01T06:23:44;98948.38;;;16.55;100.00
78888;BME280;68276;49.326;8.690;2023-08-01T06:26:10;98931.66;;;16.68;100.00
78888;BME280;68276;49.326;8.690;2023-08-01T06:28:35;98934.19;;;16.74;100.00
78888;BME280;68276;49.326;8.690;2023-08-01T06:31:01;98921.72;;;16.78;100.00
78888;BME280;68276;49.326;8.690;2023-08-01T06:33:26;98926.63;;;16.81;100.00
78888;BME280;68276;49.326;8.690;2023-08-01T06:35:51;98913.63;;;16.83;100.00
78888;BME280;68276;49.326;8.690;2023-08-01T06:38:16;98919.31;;;16.82;100.00
78888;BME280;68276;49.326;8.690;2023-08-01T06:40:42;98928.53;;;16.81;100.00
78888;BME280;68276;49.326;8.690;2023-08-01T06:43:07;98929.84;;;16.78;100.00
78888;BME280;68276;49.326;8.690;2023-08-01T06:45:32;98927.16;;;16.78;100.00
78888;BME280;68276;49.326;8.690;2023-08-01T06:47:58;98923.56;;;16.73;100.00
78888;BME280;68276;49.326;8.690;2023-08-01T06:50:23;98932.53;;;16.73;100.00
78888;BME280;68276;49.326;8.690;2023-08-01T06:52:49;98943.38;;;16.73;100.00
78888;BME280;68276;49.326;8.690;2023-08-01T06:55:14;98945.25;;;16.73;100.00
78888;BME280;68276;49.326;8.690;2023-08-01T06:57:39;98939.09;;;16.77;100.00
78888;BME280;68276;49.326;8.690;2023-08-01T07:00:05;98929.25;;;16.71;100.00
78888;BME280;68276;49.326;8.690;2023-08-01T07:02:31;98931.41;;;16.69;100.00
78888;BME280;68276;49.326;8.690;2023-08-01T07:04:56;98932.00;;;16.76;100.00
78888;BME280;68276;49.326;8.690;2023-08-01T07:07:22;98935.28;;;16.78;100.00
78888;BME280;68276;49.326;8.690;2023-08-01T07:09:47;98931.94;;;16.66;100.00
78888;BME280;68276;49.326;8.690;2023-08-01T07:12:12;98932.84;;;16.77;100.00
78888;BME280;68276;49.326;8.690;2023-08-01T07:14:38;98927.47;;;16.87;100.00
78888;BME280;68276;49.326;8.690;2023-08-01T07:17:04;98934.56;;;16.88;100.00
78888;BME280;68276;49.326;8.690;2023-08-01T07:19:29;98942.13;;;16.86;100.00
78888;BME280;68276;49.326;8.690;2023-08-01T07:21:54;98930.19;;;16.87;100.00
78888;BME280;68276;49.326;8.690;2023-08-01T07:24:20;98927.84;;;17.00;100.00
78888;BME280;68276;49.326;8.690;2023-08-01T07:26:45;98910.03;;;17.14;100.00
78888;BME280;68276;49.326;8.690;2023-08-01T07:29:10;98915.00;;;17.23;100.00
78888;BME280;68276;49.326;8.690;2023-08-01T07:31:38;98899.28;;;17.30;100.00
78888;BME280;68276;49.326;8.690;2023-08-01T07:34:03;98913.94;;;17.29;100.00
78888;BME280;68276;49.326;8.690;2023-08-01T07:36:28;98922.56;;;17.21;100.00
78888;BME280;68276;49.326;8.690;2023-08-01T07:38:54;98912.31;;;17.28;100.00
78888;BME280;68276;49.326;8.690;2023-08-01T07:41:21;98925.34;;;17.31;100.00
78888;BME280;68276;49.326;8.690;2023-08-01T07:43:46;98920.22;;;17.34;100.00
78888;BME280;68276;49.326;8.690;2023-08-01T07:46:12;98932.22;;;17.43;100.00
78888;BME280;68276;49.326;8.690;2023-08-01T07:48:38;98937.06;;;17.36;100.00
78888;BME280;68276;49.326;8.690;2023-08-01T07:51:03;98939.78;;;17.41;100.00
78888;BME280;68276;49.326;8.690;2023-08-01T07:53:31;98935.69;;;17.39;100.00
78888;BME280;68276;49.326;8.690;2023-08-01T07:55:56;98941.66;;;17.36;100.00
78888;BME280;68276;49.326;8.690;2023-08-01T07:58:22;98934.56;;;17.25;100.00
78888;BME280;68276;49.326;8.690;2023-08-01T08:00:47;98940.03;;;17.35;100.00
78888;BME280;68276;49.326;8.690;2023-08-01T08:03:13;98933.53;;;17.41;100.00
78888;BME280;68276;49.326;8.690;2023-08-01T08:05:39;98940.91;;;17.45;100.00
78888;BME280;68276;49.326;8.690;2023-08-01T08:08:05;98944.78;;;17.54;100.00
78888;BME280;68276;49.326;8.690;2023-08-01T08:10:31;98944.41;;;17.46;100.00
78888;BME280;68276;49.326;8.690;2023-08-01T08:12:56;98940.09;;;17.45;100.00
78888;BME280;68276;49.326;8.690;2023-08-01T08:15:22;98949.28;;;17.44;100.00
78888;BME280;68276;49.326;8.690;2023-08-01T08:17:49;98941.94;;;17.39;100.00
78888;BME280;68276;49.326;8.690;2023-08-01T08:20:14;98949.28;;;17.44;100.00
78888;BME280;68276;49.326;8.690;2023-08-01T08:22:39;98937.75;;;17.63;100.00
78888;BME280;68276;49.326;8.690;2023-08-01T08:25:05;98947.38;;;17.91;100.00
78888;BME280;68276;49.326;8.690;2023-08-01T08:27:30;98949.56;;;17.94;100.00
78888;BME280;68276;49.326;8.690;2023-08-01T08:29:56;98950.13;;;18.01;100.00
78888;BME280;68276;49.326;8.690;2023-08-01T08:32:21;98957.78;;;18.04;100.00
78888;BME280;68276;49.326;8.690;2023-08-01T08:34:46;98966.00;;;18.34;100.00
78888;BME280;68276;49.326;8.690;2023-08-01T08:37:12;98969.31;;;18.41;100.00
78888;BME280;68276;49.326;8.690;2023-08-01T08:39:37;98970.44;;;18.75;100.00
78888;BME280;68276;49.326;8.690;2023-08-01T08:42:03;98958.50;;;18.86;100.00
78888;BME280;68276;49.326;8.690;2023-08-01T08:44:30;98971.53;;;18.89;100.00
78888;BME280;68276;49.326;8.690;2023-08-01T08:47:02;98982.44;;;18.74;100.00
78888;BME280;68276;49.326;8.690;2023-08-01T08:49:32;98977.81;;;18.70;100.00
78888;BME280;68276;49.326;8.690;2023-08-01T08:51:58;98971.81;;;18.78;100.00
78888;BME280;68276;49.326;8.690;2023-08-01T08:54:23;98971.00;;;18.77;100.00
78888;BME280;68276;49.326;8.690;2023-08-01T08:56:50;98972.09;;;18.91;100.00
78888;BME280;68276;49.326;8.690;2023-08-01T08:59:16;98974.53;;;18.93;100.00
78888;BME280;68276;49.326;8.690;2023-08-01T09:01:42;98986.75;;;18.75;100.00
78888;BME280;68276;49.326;8.690;2023-08-01T09:04:08;98980.25;;;18.76;100.00
78888;BME280;68276;49.326;8.690;2023-08-01T09:06:48;98975.91;;;18.90;100.00
78888;BME280;68276;49.326;8.690;2023-08-01T09:09:14;98979.69;;;18.94;100.00
78888;BME280;68276;49.326;8.690;2023-08-01T09:11:49;98974.81;;;19.26;100.00
78888;BME280;68276;49.326;8.690;2023-08-01T09:14:15;98978.63;;;19.46;100.00
78888;BME280;68276;49.326;8.690;2023-08-01T09:16:41;98980.78;;;19.49;100.00
78888;BME280;68276;49.326;8.690;2023-08-01T09:19:07;98970.06;;;19.87;100.00
78888;BME280;68276;49.326;8.690;2023-08-01T09:21:34;98978.63;;;20.24;100.00
78888;BME280;68276;49.326;8.690;2023-08-01T09:24:10;98985.56;;;20.50;100.00
78888;BME280;68276;49.326;8.690;2023-08-01T09:26:36;98985.56;;;20.50;100.00
78888;BME280;68276;49.326;8.690;2023-08-01T09:29:02;98985.38;;;20.37;100.00
78888;BME280;68276;49.326;8.690;2023-08-01T09:31:32;98987.06;;;20.28;100.00
78888;BME280;68276;49.326;8.690;2023-08-01T09:33:59;98987.31;;;20.31;100.00
78888;BME280;68276;49.326;8.690;2023-08-01T09:36:25;98979.53;;;20.05;100.00
78888;BME280;68276;49.326;8.690;2023-08-01T09:38:51;98977.84;;;20.09;100.00
78888;BME280;68276;49.326;8.690;2023-08-01T09:41:17;98983.84;;;20.11;100.00
78888;BME280;68276;49.326;8.690;2023-08-01T09:43:46;98984.47;;;19.98;100.00
78888;BME280;68276;49.326;8.690;2023-08-01T09:46:12;98984.78;;;19.81;100.00
78888;BME280;68276;49.326;8.690;2023-08-01T09:48:38;98993.19;;;19.95;100.00
78888;BME280;68276;49.326;8.690;2023-08-01T09:51:11;99002.41;;;20.04;100.00
78888;BME280;68276;49.326;8.690;2023-08-01T09:56:18;98993.81;;;20.40;100.00
78888;BME280;68276;49.326;8.690;2023-08-01T09:58:44;98994.41;;;20.81;100.00
78888;BME280;68276;49.326;8.690;2023-08-01T10:01:11;98990.28;;;20.84;100.00
78888;BME280;68276;49.326;8.690;2023-08-01T10:03:38;98985.63;;;21.23;100.00
78888;BME280;68276;49.326;8.690;2023-08-01T10:06:04;98987.41;;;21.61;100.00
78888;BME280;68276;49.326;8.690;2023-08-01T10:08:29;98986.16;;;21.53;100.00
78888;BME280;68276;49.326;8.690;2023-08-01T10:10:57;98985.47;;;21.38;98.58
78888;BME280;68276;49.326;8.690;2023-08-01T10:13:23;98984.19;;;21.30;92.37
78888;BME280;68276;49.326;8.690;2023-08-01T10:15:50;98987.81;;;21.49;91.30
78888;BME280;68276;49.326;8.690;2023-08-01T10:18:16;98977.84;;;21.63;87.28
78888;BME280;68276;49.326;8.690;2023-08-01T10:20:43;98980.44;;;21.74;87.23
78888;BME280;68276;49.326;8.690;2023-08-01T10:23:09;98976.41;;;21.95;83.77
78888;BME280;68276;49.326;8.690;2023-08-01T10:25:36;98991.75;;;21.91;80.90
78888;BME280;68276;49.326;8.690;2023-08-01T10:28:03;98995.78;;;21.98;82.53
78888;BME280;68276;49.326;8.690;2023-08-01T10:30:29;98996.91;;;22.39;75.31
78888;BME280;68276;49.326;8.690;2023-08-01T10:32:55;98984.97;;;22.54;72.99
78888;BME280;68276;49.326;8.690;2023-08-01T10:35:32;98988.63;;;22.44;77.14
78888;BME280;68276;49.326;8.690;2023-08-01T10:38:07;98998.16;;;22.28;75.58
78888;BME280;68276;49.326;8.690;2023-08-01T10:40:37;98989.03;;;22.14;70.16
78888;BME280;68276;49.326;8.690;2023-08-01T10:43:03;98982.88;;;21.80;70.06
78888;BME280;68276;49.326;8.690;2023-08-01T10:47:35;98987.16;;;22.33;73.04
78888;BME280;68276;49.326;8.690;2023-08-01T10:50:01;99000.94;;;22.65;65.55
78888;BME280;68276;49.326;8.690;2023-08-01T10:52:26;98995.31;;;22.76;63.09
78888;BME280;68276;49.326;8.690;2023-08-01T10:54:57;99001.22;;;22.83;62.97
78888;BME280;68276;49.326;8.690;2023-08-01T10:57:23;98982.19;;;22.91;61.63
78888;BME280;68276;49.326;8.690;2023-08-01T10:59:49;98985.50;;;22.56;59.88
78888;BME280;68276;49.326;8.690;2023-08-01T11:02:20;98999.75;;;22.90;61.94
78888;BME280;68276;49.326;8.690;2023-08-01T11:04:55;98981.84;;;22.79;60.91
78888;BME280;68276;49.326;8.690;2023-08-01T11:07:21;98992.31;;;23.09;60.65
78888;BME280;68276;49.326;8.690;2023-08-01T11:09:46;98983.78;;;23.29;56.45
78888;BME280;68276;49.326;8.690;2023-08-01T11:12:11;98980.81;;;23.71;56.08
78888;BME280;68276;49.326;8.690;2023-08-01T11:14:37;98992.00;;;23.89;52.93
78888;BME280;68276;49.326;8.690;2023-08-01T11:17:03;98991.28;;;23.83;57.42
78888;BME280;68276;49.326;8.690;2023-08-01T11:19:29;99004.22;;;23.83;55.55
78888;BME280;68276;49.326;8.690;2023-08-01T11:21:56;98993.66;;;23.30;56.38
78888;BME280;68276;49.326;8.690;2023-08-01T11:24:23;99009.59;;;23.42;57.48
78888;BME280;68276;49.326;8.690;2023-08-01T11:26:50;99016.66;;;23.29;59.00
78888;BME280;68276;49.326;8.690;2023-08-01T11:29:17;99015.38;;;22.90;62.76
78888;BME280;68276;49.326;8.690;2023-08-01T11:31:56;99029.75;;;22.39;67.71
78888;BME280;68276;49.326;8.690;2023-08-01T11:34:22;99024.75;;;22.23;69.15
78888;BME280;68276;49.326;8.690;2023-08-01T11:36:48;99036.91;;;22.12;67.77
78888;BME280;68276;49.326;8.690;2023-08-01T11:39:14;99033.50;;;22.25;67.12
78888;BME280;68276;49.326;8.690;2023-08-01T11:41:41;99041.03;;;22.56;67.05
78888;BME280;68276;49.326;8.690;2023-08-01T11:44:07;99038.03;;;22.77;66.00
78888;BME280;68276;49.326;8.690;2023-08-01T11:46:34;99035.16;;;22.68;63.61
78888;BME280;68276;49.326;8.690;2023-08-01T11:49:01;99056.28;;;22.62;60.50
78888;BME280;68276;49.326;8.690;2023-08-01T11:51:27;99045.19;;;22.73;60.58
78888;BME280;68276;49.326;8.690;2023-08-01T11:54:02;99040.84;;;22.90;60.59
78888;BME280;68276;49.326;8.690;2023-08-01T11:56:28;99050.72;;;23.23;56.56
78888;BME280;68276;49.326;8.690;2023-08-01T11:58:54;99048.81;;;23.42;52.99
78888;BME280;68276;49.326;8.690;2023-08-01T12:01:19;99044.91;;;23.30;54.31
78888;BME280;68276;49.326;8.690;2023-08-01T12:04:03;99039.44;;;23.75;52.77
78888;BME280;68276;49.326;8.690;2023-08-01T12:06:31;99053.69;;;23.45;53.23
78888;BME280;68276;49.326;8.690;2023-08-01T12:09:11;99058.44;;;23.40;54.59
78888;BME280;68276;49.326;8.690;2023-08-01T12:11:37;99039.72;;;23.10;55.68
78888;BME280;68276;49.326;8.690;2023-08-01T12:14:07;99068.34;;;23.54;54.52
78888;BME280;68276;49.326;8.690;2023-08-01T12:16:38;99055.25;;;22.77;56.13
78888;BME280;68276;49.326;8.690;2023-08-01T12:19:04;99058.44;;;23.21;56.80
78888;BME280;68276;49.326;8.690;2023-08-01T12:21:30;99061.88;;;23.13;56.00
78888;BME280;68276;49.326;8.690;2023-08-01T12:23:56;99079.03;;;22.82;55.59
78888;BME280;68276;49.326;8.690;2023-08-01T12:26:22;99058.97;;;22.44;55.36
78888;BME280;68276;49.326;8.690;2023-08-01T12:28:47;99063.47;;;23.14;53.76
78888;BME280;68276;49.326;8.690;2023-08-01T12:31:18;99062.00;;;23.40;52.87
78888;BME280;68276;49.326;8.690;2023-08-01T12:33:44;99047.47;;;23.40;53.33
78888;BME280;68276;49.326;8.690;2023-08-01T12:36:11;99048.69;;;23.79;53.07
78888;BME280;68276;49.326;8.690;2023-08-01T12:38:36;99061.50;;;23.84;52.63
78888;BME280;68276;49.326;8.690;2023-08-01T12:41:01;99068.34;;;23.54;53.00
78888;BME280;68276;49.326;8.690;2023-08-01T12:43:27;99050.38;;;24.08;51.05
78888;BME280;68276;49.326;8.690;2023-08-01T12:45:52;99079.97;;;23.78;51.56
78888;BME280;68276;49.326;8.690;2023-08-01T12:48:18;99059.66;;;23.79;51.45
78888;BME280;68276;49.326;8.690;2023-08-01T12:50:44;99073.19;;;23.44;51.98
78888;BME280;68276;49.326;8.690;2023-08-01T12:53:11;99062.66;;;22.95;53.22